createdAt,value
2019-05-03T00:02:06.908Z,99.90
2019-05-03T00:04:36.823Z,99.90
2019-05-03T00:07:06.037Z,99.90
2019-05-03T00:09:34.969Z,99.90
2019-05-03T00:12:03.707Z,99.90
2019-05-03T00:14:32.658Z,99.90
2019-05-03T00:17:02.280Z,99.90
2019-05-03T00:19:32.735Z,99.90
2019-05-03T00:22:02.095Z,99.90
2019-05-03T00:24:32.097Z,99.90
2019-05-03T00:27:01.976Z,99.90
2019-05-03T00:29:32.505Z,99.90
2019-05-03T00:32:01.950Z,99.90
2019-05-03T00:34:36.416Z,99.90
2019-05-03T00:37:08.523Z,99.90
2019-05-03T00:39:41.889Z,99.90
2019-05-03T00:42:11.965Z,99.90
2019-05-03T00:44:42.214Z,99.90
2019-05-03T00:47:12.598Z,99.90
2019-05-03T00:49:42.577Z,99.90
2019-05-03T00:52:11.773Z,99.90
2019-05-03T00:54:42.337Z,99.90
2019-05-03T00:57:12.085Z,99.90
2019-05-03T00:59:42.018Z,99.90
2019-05-03T01:02:11.848Z,99.90
2019-05-03T01:04:42.573Z,99.90
2019-05-03T01:07:11.729Z,99.90
2019-05-03T01:09:42.419Z,99.90
2019-05-03T01:12:12.587Z,99.90
2019-05-03T01:14:43.294Z,99.90
2019-05-03T01:17:12.095Z,99.90
2019-05-03T01:19:42.599Z,99.90
2019-05-03T01:22:11.961Z,99.90
2019-05-03T01:24:42.691Z,99.90
2019-05-03T01:27:12.411Z,99.90
2019-05-03T01:29:42.473Z,99.90
2019-05-03T01:32:11.634Z,99.90
2019-05-03T01:34:41.625Z,99.90
2019-05-03T01:37:11.915Z,99.90
2019-05-03T01:39:42.155Z,99.90
2019-05-03T01:42:11.938Z,99.90
2019-05-03T01:44:42.628Z,99.90
2019-05-03T01:47:15.968Z,99.90
2019-05-03T01:49:54.384Z,99.90
2019-05-03T01:52:27.521Z,99.90
2019-05-03T01:54:56.323Z,99.90
2019-05-03T01:57:25.038Z,99.90
2019-05-03T01:59:54.056Z,99.90
2019-05-03T02:02:41.975Z,99.90
2019-05-03T02:05:39.012Z,99.90
2019-05-03T02:08:08.517Z,99.90
2019-05-03T02:10:37.247Z,99.90
2019-05-03T02:13:06.100Z,99.90
2019-05-03T02:15:34.832Z,99.90
2019-05-03T02:18:03.660Z,99.90
2019-05-03T02:20:32.538Z,99.90
2019-05-03T02:23:02.746Z,99.90
2019-05-03T02:25:32.422Z,99.90
2019-05-03T02:28:01.966Z,99.90
2019-05-03T02:30:33.215Z,99.90
2019-05-03T02:33:04.117Z,99.90
2019-05-03T02:35:33.413Z,99.90
2019-05-03T02:38:03.561Z,99.90
2019-05-03T02:40:33.889Z,99.90
2019-05-03T02:43:08.926Z,99.90
2019-05-03T02:45:47.087Z,99.90
2019-05-03T02:48:25.548Z,99.90
2019-05-03T02:50:56.522Z,99.90
2019-05-03T02:53:25.921Z,99.90
2019-05-03T02:55:56.085Z,99.90
2019-05-03T02:58:25.587Z,99.90
2019-05-03T03:00:58.835Z,99.90
2019-05-03T03:03:28.366Z,99.90
2019-05-03T03:05:58.730Z,99.90
2019-05-03T03:08:32.986Z,99.90
2019-05-03T03:11:02.770Z,99.90
2019-05-03T03:13:36.553Z,99.90
2019-05-03T03:16:06.883Z,99.90
2019-05-03T03:18:37.894Z,99.90
2019-05-03T03:21:16.060Z,99.90
2019-05-03T03:24:10.813Z,99.90
2019-05-03T03:26:43.148Z,99.90
2019-05-03T03:29:11.560Z,99.90
2019-05-03T03:32:30.243Z,99.90
2019-05-03T03:35:22.389Z,99.90
2019-05-03T03:37:51.536Z,99.90
2019-05-03T03:40:20.801Z,99.90
2019-05-03T03:42:50.623Z,99.90
2019-05-03T03:45:19.382Z,99.90
2019-05-03T03:47:50.395Z,99.90
2019-05-03T03:50:19.161Z,99.90
2019-05-03T03:52:50.317Z,99.90
2019-05-03T03:55:19.079Z,99.90
2019-05-03T03:57:47.881Z,99.90
2019-05-03T04:00:17.183Z,99.90
2019-05-03T04:02:46.099Z,99.90
2019-05-03T04:05:15.983Z,99.90
2019-05-03T04:07:46.367Z,99.90
2019-05-03T04:10:15.865Z,99.90
2019-05-03T04:12:46.349Z,99.90
2019-05-03T04:15:27.635Z,99.90
2019-05-03T04:18:06.974Z,99.90
2019-05-03T04:20:37.733Z,99.90
2019-05-03T04:23:06.656Z,99.90
2019-05-03T04:25:36.109Z,99.90
2019-05-03T04:28:05.793Z,99.90
2019-05-03T04:30:36.377Z,99.90
2019-05-03T04:33:06.151Z,99.90
2019-05-03T04:35:36.322Z,99.90
2019-05-03T04:38:05.755Z,99.90
2019-05-03T04:40:35.769Z,99.90
2019-05-03T04:43:06.002Z,99.90
2019-05-03T04:45:36.657Z,99.90
2019-05-03T04:48:06.286Z,99.90
2019-05-03T04:50:36.680Z,99.90
2019-05-03T04:53:06.549Z,99.90
2019-05-03T04:55:36.339Z,99.90
2019-05-03T04:58:05.407Z,99.90
2019-05-03T05:00:35.796Z,99.90
2019-05-03T05:03:05.899Z,99.90
2019-05-03T05:05:36.399Z,99.90
2019-05-03T05:08:06.004Z,99.90
2019-05-03T05:10:36.322Z,99.90
2019-05-03T05:13:05.809Z,99.90
2019-05-03T05:15:35.480Z,99.90
2019-05-03T05:18:16.768Z,99.90
2019-05-03T05:20:53.108Z,99.90
2019-05-03T05:23:21.936Z,99.90
2019-05-03T05:26:00.723Z,99.90
2019-05-03T05:28:38.785Z,99.90
2019-05-03T05:31:08.393Z,99.90
2019-05-03T05:33:37.273Z,99.90
2019-05-03T05:36:06.073Z,99.90
2019-05-03T05:38:35.171Z,99.90
2019-05-03T05:41:05.342Z,99.90
2019-05-03T05:43:35.673Z,99.90
2019-05-03T05:46:05.343Z,99.90
2019-05-03T05:48:39.829Z,99.90
2019-05-03T05:51:08.615Z,99.90
2019-05-03T05:53:37.433Z,99.90
2019-05-03T05:56:25.083Z,99.90
2019-05-03T05:59:08.428Z,99.90
2019-05-03T06:01:45.484Z,99.90
2019-05-03T06:04:15.405Z,99.90
2019-05-03T06:07:12.419Z,99.90
2019-05-03T06:09:48.271Z,99.90
2019-05-03T06:12:22.846Z,99.90
2019-05-03T06:14:55.792Z,99.90
2019-05-03T06:17:45.022Z,99.90
2019-05-03T06:20:24.568Z,99.90
2019-05-03T06:22:58.109Z,99.90
2019-05-03T06:25:35.324Z,99.90
2019-05-03T06:28:17.330Z,99.90
2019-05-03T06:30:54.428Z,99.90
2019-05-03T06:33:24.468Z,99.90
2019-05-03T06:35:54.666Z,99.90
2019-05-03T06:38:24.397Z,99.90
2019-05-03T06:40:54.397Z,99.90
2019-05-03T06:43:47.149Z,99.90
2019-05-03T06:46:16.347Z,99.90
2019-05-03T06:48:44.422Z,99.90
2019-05-03T06:51:19.259Z,99.90
2019-05-03T06:53:47.553Z,99.90
2019-05-03T06:56:14.892Z,99.90
2019-05-03T06:58:44.912Z,99.90
2019-05-03T07:01:26.500Z,99.90
2019-05-03T07:04:05.476Z,99.90
2019-05-03T07:06:40.737Z,99.90
2019-05-03T07:09:30.153Z,99.90
2019-05-03T07:11:58.933Z,99.90
2019-05-03T07:14:27.627Z,99.90
2019-05-03T07:16:56.348Z,99.90
2019-05-03T07:19:25.143Z,99.90
2019-05-03T07:21:54.622Z,99.90
2019-05-03T07:24:24.882Z,99.90
2019-05-03T07:26:55.135Z,99.90
2019-05-03T07:29:25.463Z,99.90
2019-05-03T07:31:54.972Z,99.90
2019-05-03T07:34:24.778Z,99.90
2019-05-03T07:36:55.536Z,99.90
2019-05-03T07:39:24.670Z,99.90
2019-05-03T07:41:55.085Z,99.90
2019-05-03T07:44:25.545Z,99.90
2019-05-03T07:46:55.469Z,99.90
2019-05-03T07:49:24.953Z,99.90
2019-05-03T07:51:55.312Z,99.90
2019-05-03T07:54:24.841Z,99.90
2019-05-03T07:56:59.024Z,99.90
2019-05-03T07:59:27.706Z,99.90
2019-05-03T08:01:57.830Z,99.90
2019-05-03T08:04:26.686Z,99.90
2019-05-03T08:06:55.461Z,99.90
2019-05-03T08:09:24.645Z,99.90
2019-05-03T08:11:54.710Z,99.90
2019-05-03T08:14:25.214Z,99.90
2019-05-03T08:16:54.779Z,99.90
2019-05-03T08:19:26.899Z,99.90
2019-05-03T08:21:56.591Z,99.90
2019-05-03T08:24:25.295Z,99.90
2019-05-03T08:26:55.778Z,99.90
2019-05-03T08:29:24.936Z,99.90
2019-05-03T08:32:07.368Z,99.90
2019-05-03T08:34:40.927Z,99.90
2019-05-03T08:37:15.319Z,99.90
2019-05-03T08:39:44.719Z,99.90
2019-05-03T08:42:20.392Z,99.90
2019-05-03T08:44:49.165Z,99.20
2019-05-03T08:47:17.902Z,99.60
2019-05-03T08:49:46.660Z,99.90
2019-05-03T08:52:15.786Z,99.30
2019-05-03T08:54:44.940Z,96.50
2019-05-03T08:57:15.028Z,96.60
2019-05-03T08:59:44.630Z,98.10
2019-05-03T09:02:16.418Z,98.80
2019-05-03T09:04:45.932Z,96.30
2019-05-03T09:07:14.912Z,94.50
2019-05-03T09:09:54.847Z,97.50
2019-05-03T09:12:25.261Z,97.10
2019-05-03T09:14:54.673Z,94.30
2019-05-03T09:17:24.695Z,95.30
2019-05-03T09:19:54.879Z,94.50
2019-05-03T09:22:25.518Z,93.40
2019-05-03T09:24:54.741Z,93.60
2019-05-03T09:27:24.761Z,94.50
2019-05-03T09:29:55.662Z,94.40
2019-05-03T09:32:25.676Z,96.60
2019-05-03T09:34:55.081Z,92.30
2019-05-03T09:37:25.043Z,94.30
2019-05-03T09:39:55.183Z,95.00
2019-05-03T09:42:24.773Z,93.00
2019-05-03T09:44:55.430Z,92.50
2019-05-03T09:47:25.207Z,91.50
2019-05-03T09:49:55.877Z,91.20
2019-05-03T09:52:25.181Z,90.20
2019-05-03T09:54:55.729Z,93.80
2019-05-03T09:57:24.843Z,90.30
2019-05-03T09:59:59.099Z,91.80
2019-05-03T10:02:24.702Z,91.30
2019-05-03T10:04:55.416Z,92.30
2019-05-03T10:07:25.757Z,90.40
2019-05-03T10:09:55.190Z,87.80
2019-05-03T10:12:25.542Z,86.10
2019-05-03T10:14:54.945Z,90.20
2019-05-03T10:17:51.841Z,89.10
2019-05-03T10:20:25.027Z,86.20
2019-05-03T10:22:55.211Z,87.20
2019-05-03T10:25:24.768Z,88.50
2019-05-03T10:27:55.045Z,88.40
2019-05-03T10:30:27.973Z,90.20
2019-05-03T10:33:05.819Z,90.30
2019-05-03T10:35:35.322Z,92.30
2019-05-03T10:38:05.798Z,91.10
2019-05-03T10:40:35.690Z,88.20
2019-05-03T10:43:05.911Z,87.90
2019-05-03T10:45:35.525Z,84.10
2019-05-03T10:48:05.200Z,89.20
2019-05-03T10:50:34.786Z,85.50
2019-05-03T10:53:08.722Z,82.00
2019-05-03T10:55:37.529Z,79.60
2019-05-03T10:58:25.016Z,83.70
2019-05-03T11:00:56.637Z,82.60
2019-05-03T11:03:24.862Z,82.20
2019-05-03T11:05:54.809Z,81.60
2019-05-03T11:08:23.717Z,84.30
2019-05-03T11:10:52.523Z,79.60
2019-05-03T11:13:21.233Z,80.10
2019-05-03T11:15:49.984Z,80.00
2019-05-03T11:18:18.869Z,82.00
2019-05-03T11:20:47.594Z,81.00
2019-05-03T11:23:16.356Z,83.00
2019-05-03T11:25:45.370Z,84.60
2019-05-03T11:28:19.325Z,80.40
2019-05-03T11:30:55.653Z,87.90
2019-05-03T11:33:35.336Z,86.10
2019-05-03T11:36:18.434Z,82.40
2019-05-03T11:38:48.417Z,78.60
2019-05-03T11:41:29.539Z,77.20
2019-05-03T11:44:24.636Z,81.80
2019-05-03T11:46:55.137Z,73.70
2019-05-03T11:49:25.450Z,74.80
2019-05-03T11:51:55.630Z,75.80
2019-05-03T11:54:24.965Z,80.50
2019-05-03T11:56:55.582Z,76.90
2019-05-03T11:59:26.452Z,80.10
2019-05-03T12:02:10.347Z,79.10
2019-05-03T12:04:39.269Z,81.40
2019-05-03T12:07:08.238Z,81.70
2019-05-03T12:09:37.258Z,82.10
2019-05-03T12:12:08.026Z,82.80
2019-05-03T12:14:36.839Z,79.80
2019-05-03T12:17:17.821Z,83.00
2019-05-03T12:19:41.284Z,81.20
2019-05-03T12:22:10.863Z,81.50
2019-05-03T12:24:40.458Z,80.20
2019-05-03T12:27:09.594Z,80.10
2019-05-03T12:29:38.332Z,76.30
2019-05-03T12:32:07.016Z,80.50
2019-05-03T12:34:35.789Z,76.30
2019-05-03T12:37:05.165Z,77.80
2019-05-03T12:39:35.880Z,77.60
2019-05-03T12:42:05.844Z,76.70
2019-05-03T12:44:35.567Z,75.80
2019-05-03T12:47:06.036Z,79.10
2019-05-03T12:49:36.016Z,76.90
2019-05-03T12:52:05.332Z,79.30
2019-05-03T12:54:35.645Z,81.50
2019-05-03T12:57:05.286Z,81.00
2019-05-03T12:59:48.701Z,80.60
2019-05-03T13:02:41.098Z,79.00
2019-05-03T13:05:10.235Z,83.30
2019-05-03T13:07:45.491Z,89.00
2019-05-03T13:10:21.756Z,85.00
2019-05-03T13:12:52.397Z,86.90
2019-05-03T13:15:17.425Z,86.60
2019-05-03T13:17:46.138Z,90.00
2019-05-03T13:20:15.753Z,85.10
2019-05-03T13:22:45.722Z,87.00
2019-05-03T13:25:15.725Z,87.20
2019-05-03T13:27:46.175Z,87.00
2019-05-03T13:30:15.951Z,88.30
2019-05-03T13:32:45.638Z,85.90
2019-05-03T13:35:15.121Z,87.20
2019-05-03T13:37:45.294Z,86.00
2019-05-03T13:40:15.001Z,85.00
2019-05-03T13:42:56.055Z,86.60
2019-05-03T13:45:14.589Z,77.60
2019-05-03T13:47:46.354Z,77.70
2019-05-03T13:50:16.932Z,79.60
2019-05-03T13:52:45.783Z,80.40
2019-05-03T13:55:14.681Z,82.10
2019-05-03T13:57:46.007Z,81.30
2019-05-03T14:00:18.700Z,82.30
2019-05-03T14:02:47.476Z,86.20
2019-05-03T14:05:16.302Z,85.70
2019-05-03T14:07:45.080Z,84.70
2019-05-03T14:10:14.792Z,86.90
2019-05-03T14:12:45.477Z,90.00
2019-05-03T14:15:15.852Z,89.60
2019-05-03T14:17:44.551Z,91.30
2019-05-03T14:20:22.870Z,90.20
2019-05-03T14:22:52.345Z,91.50
2019-05-03T14:25:24.557Z,90.90
2019-05-03T14:27:54.825Z,91.50
2019-05-03T14:30:25.335Z,91.10
2019-05-03T14:32:55.754Z,92.10
2019-05-03T14:35:25.175Z,90.40
2019-05-03T14:37:55.084Z,91.80
2019-05-03T14:40:25.238Z,90.60
2019-05-03T14:42:55.520Z,91.60
2019-05-03T14:45:25.548Z,91.80
2019-05-03T14:47:57.728Z,91.80
2019-05-03T14:50:27.079Z,90.80
2019-05-03T14:52:57.013Z,91.30
2019-05-03T14:55:34.640Z,91.20
2019-05-03T14:58:17.546Z,90.80
2019-05-03T15:00:54.521Z,91.90
2019-05-03T15:03:24.827Z,92.30
2019-05-03T15:05:55.125Z,92.70
2019-05-03T15:08:25.652Z,91.60
2019-05-03T15:10:54.796Z,91.60
2019-05-03T15:13:25.060Z,92.10
2019-05-03T15:15:54.901Z,90.80
2019-05-03T15:18:27.408Z,89.10
2019-05-03T15:20:56.165Z,90.20
2019-05-03T15:23:25.717Z,90.70
2019-05-03T15:25:54.872Z,89.00
2019-05-03T15:28:25.028Z,89.70
2019-05-03T15:30:55.350Z,87.90
2019-05-03T15:33:24.821Z,87.70
2019-05-03T15:35:55.501Z,88.00
2019-05-03T15:38:24.377Z,88.80
2019-05-03T15:40:54.783Z,86.20
2019-05-03T15:43:40.827Z,88.60
2019-05-03T15:46:28.919Z,89.00
2019-05-03T15:49:01.492Z,90.50
2019-05-03T15:51:30.262Z,90.50
2019-05-03T15:53:59.897Z,91.00
2019-05-03T15:56:34.980Z,91.40
2019-05-03T15:59:04.482Z,91.40
2019-05-03T16:01:35.267Z,91.10
2019-05-03T16:04:04.807Z,90.30
2019-05-03T16:06:34.304Z,90.50
2019-05-03T16:09:05.480Z,90.90
2019-05-03T16:11:34.804Z,92.10
2019-05-03T16:14:04.520Z,91.20
2019-05-03T16:16:35.327Z,91.80
2019-05-03T16:19:05.459Z,91.50
2019-05-03T16:21:36.624Z,91.90
2019-05-03T16:24:05.124Z,92.60
2019-05-03T16:26:36.042Z,92.50
2019-05-03T16:29:09.928Z,91.70
2019-05-03T16:31:58.095Z,92.10
2019-05-03T16:34:27.686Z,93.00
2019-05-03T16:36:56.820Z,92.90
2019-05-03T16:39:26.940Z,91.90
2019-05-03T16:41:55.987Z,92.70
2019-05-03T16:44:24.792Z,92.70
2019-05-03T16:46:55.336Z,91.90
2019-05-03T16:49:24.675Z,92.70
2019-05-03T16:51:54.903Z,92.40
2019-05-03T16:54:25.434Z,92.30
2019-05-03T16:56:54.957Z,92.90
2019-05-03T16:59:24.714Z,92.40
2019-05-03T17:01:56.801Z,92.80
2019-05-03T17:04:49.309Z,92.50
2019-05-03T17:07:27.871Z,92.90
2019-05-03T17:10:04.917Z,92.70
2019-05-03T17:12:34.821Z,92.00
2019-05-03T17:15:06.093Z,92.60
2019-05-03T17:17:37.644Z,92.80
2019-05-03T17:20:06.594Z,93.00
2019-05-03T17:22:36.265Z,92.80
2019-05-03T17:25:06.539Z,93.50
2019-05-03T17:27:42.108Z,94.10
2019-05-03T17:30:33.517Z,93.90
2019-05-03T17:32:44.454Z,93.70
2019-05-03T17:35:14.464Z,93.50
2019-05-03T17:37:45.084Z,93.80
2019-05-03T17:40:28.755Z,94.10
2019-05-03T17:43:10.835Z,93.70
2019-05-03T17:45:45.452Z,93.80
2019-05-03T17:48:15.032Z,94.20
2019-05-03T17:50:45.462Z,93.70
2019-05-03T17:53:39.564Z,94.00
2019-05-03T17:56:26.127Z,94.10
2019-05-03T17:58:58.172Z,95.40
2019-05-03T18:01:44.790Z,94.90
2019-05-03T18:04:20.621Z,94.70
2019-05-03T18:06:59.675Z,95.20
2019-05-03T18:09:34.723Z,94.90
2019-05-03T18:12:05.256Z,95.30
2019-05-03T18:14:34.551Z,94.10
2019-05-03T18:17:05.529Z,94.70
2019-05-03T18:19:34.413Z,95.20
2019-05-03T18:22:05.193Z,94.90
2019-05-03T18:24:35.204Z,95.00
2019-05-03T18:27:04.481Z,95.00
2019-05-03T18:29:34.634Z,94.80
2019-05-03T18:32:05.471Z,95.30
2019-05-03T18:34:34.391Z,95.30
2019-05-03T18:37:04.815Z,95.60
2019-05-03T18:39:34.698Z,95.60
2019-05-03T18:42:06.064Z,95.30
2019-05-03T18:44:44.810Z,95.50
2019-05-03T18:47:17.079Z,95.70
2019-05-03T18:49:46.233Z,96.10
2019-05-03T18:52:15.032Z,95.90
2019-05-03T18:54:44.461Z,96.20
2019-05-03T18:57:15.500Z,96.40
2019-05-03T18:59:44.943Z,96.40
2019-05-03T19:02:14.945Z,96.80
2019-05-03T19:04:49.128Z,96.80
2019-05-03T19:07:39.974Z,96.70
2019-05-03T19:10:40.629Z,96.60
2019-05-03T19:13:19.466Z,96.90
2019-05-03T19:15:48.529Z,96.90
2019-05-03T19:18:37.254Z,97.30
2019-05-03T19:21:06.050Z,96.80
2019-05-03T19:23:35.698Z,96.50
2019-05-03T19:26:05.514Z,96.90
2019-05-03T19:28:35.383Z,96.80
2019-05-03T19:31:05.460Z,96.90
2019-05-03T19:33:35.139Z,97.00
2019-05-03T19:36:05.382Z,96.70
2019-05-03T19:38:35.162Z,97.40
2019-05-03T19:41:04.340Z,96.80
2019-05-03T19:43:35.385Z,96.80
2019-05-03T19:46:04.635Z,97.00
2019-05-03T19:48:34.850Z,97.20
2019-05-03T19:51:05.766Z,96.50
2019-05-03T19:53:55.091Z,96.60
2019-05-03T19:56:25.534Z,96.80
2019-05-03T19:58:59.260Z,97.50
2019-05-03T20:01:47.139Z,97.70
2019-05-03T20:04:40.573Z,98.00
2019-05-03T20:07:25.188Z,99.40
2019-05-03T20:09:54.476Z,99.30
2019-05-03T20:12:24.625Z,99.70
2019-05-03T20:14:54.606Z,99.90
2019-05-03T20:17:23.641Z,99.90
2019-05-03T20:19:54.359Z,98.80
2019-05-03T20:22:24.465Z,99.10
2019-05-03T20:24:55.160Z,98.60
2019-05-03T20:27:24.409Z,98.50
2019-05-03T20:29:55.303Z,98.50
2019-05-03T20:32:25.182Z,98.30
2019-05-03T20:34:55.125Z,98.00
2019-05-03T20:37:25.139Z,98.10
2019-05-03T20:39:54.535Z,98.90
2019-05-03T20:42:41.310Z,98.60
2019-05-03T20:45:14.996Z,98.20
2019-05-03T20:47:48.476Z,98.30
2019-05-03T20:50:18.433Z,98.20
2019-05-03T20:52:47.414Z,98.10
2019-05-03T20:55:16.383Z,98.00
2019-05-03T20:57:45.375Z,97.60
2019-05-03T21:00:18.079Z,97.80
2019-05-03T21:02:53.294Z,98.00
2019-05-03T21:05:26.713Z,97.70
2019-05-03T21:07:48.202Z,98.10
2019-05-03T21:10:18.481Z,97.80
2019-05-03T21:12:47.259Z,97.70
2019-05-03T21:15:30.213Z,97.50
2019-05-03T21:18:15.532Z,97.50
2019-05-03T21:20:52.091Z,97.70
2019-05-03T21:23:22.104Z,97.60
2019-05-03T21:26:13.215Z,97.50
2019-05-03T21:28:39.682Z,97.60
2019-05-03T21:31:08.688Z,97.70
2019-05-03T21:33:37.454Z,97.70
2019-05-03T21:36:06.241Z,97.80
2019-05-03T21:38:35.586Z,97.60
2019-05-03T21:41:05.169Z,98.00
2019-05-03T21:43:34.748Z,98.00
2019-05-03T21:46:29.019Z,98.20
2019-05-03T21:49:05.944Z,98.30
2019-05-03T21:51:34.762Z,98.50
2019-05-03T21:54:06.657Z,98.70
2019-05-03T21:56:35.607Z,98.80
2019-05-03T21:59:05.598Z,98.80
2019-05-03T22:01:37.482Z,99.20
2019-05-03T22:04:06.537Z,99.10
2019-05-03T22:06:35.308Z,99.50
2019-05-03T22:09:06.030Z,99.70
2019-05-03T22:11:34.883Z,99.60
2019-05-03T22:14:06.797Z,99.90
2019-05-03T22:16:50.552Z,99.90
2019-05-03T22:19:19.630Z,99.90
2019-05-03T22:22:14.864Z,99.90
2019-05-03T22:24:50.579Z,99.90
2019-05-03T22:27:21.024Z,99.90
2019-05-03T22:29:49.753Z,99.90
2019-05-03T22:32:19.113Z,99.90
2019-05-03T22:34:47.924Z,99.90
2019-05-03T22:37:16.777Z,99.90
2019-05-03T22:39:47.706Z,99.90
2019-05-03T22:42:16.365Z,99.90
2019-05-03T22:44:45.148Z,99.90
2019-05-03T22:47:14.752Z,99.90
2019-05-03T22:49:45.594Z,99.90
2019-05-03T22:52:15.443Z,99.90
2019-05-03T22:54:45.086Z,99.90
2019-05-03T22:57:15.280Z,99.90
2019-05-03T22:59:44.918Z,99.90
2019-05-03T23:02:16.769Z,99.90
2019-05-03T23:04:44.825Z,99.90
2019-05-03T23:07:14.894Z,99.90
2019-05-03T23:09:44.687Z,99.90
2019-05-03T23:12:13.665Z,99.90
2019-05-03T23:14:44.537Z,99.90
2019-05-03T23:17:14.787Z,99.90
2019-05-03T23:19:45.351Z,99.90
2019-05-03T23:22:21.612Z,99.90
2019-05-03T23:24:50.472Z,99.90
2019-05-03T23:27:19.220Z,99.90
2019-05-03T23:29:47.975Z,99.90
2019-05-03T23:32:18.033Z,99.90
2019-05-03T23:34:46.768Z,99.90
2019-05-03T23:37:15.563Z,99.90
2019-05-03T23:39:44.688Z,99.90
2019-05-03T23:42:15.469Z,99.90
2019-05-03T23:44:45.614Z,99.90
2019-05-03T23:47:40.493Z,99.90
2019-05-03T23:50:13.033Z,99.90
2019-05-03T23:52:41.811Z,99.90
2019-05-03T23:55:25.378Z,99.90
2019-05-03T23:57:55.395Z,99.90
